createdAt,value
2022-12-04T14:55:55.588Z,9.681351
2022-12-04T14:56:55.645Z,9.681190
2022-12-04T14:57:55.578Z,9.681173
2022-12-04T14:58:55.588Z,9.681173
2022-12-04T14:59:55.552Z,9.680829
2022-12-04T15:00:55.576Z,9.680829
2022-12-04T15:01:55.584Z,9.680829
2022-12-04T15:02:55.576Z,9.681025
2022-12-04T15:03:55.600Z,9.680985
2022-12-04T15:04:55.918Z,9.681233
2022-12-04T15:05:55.559Z,9.680724
2022-12-04T15:06:59.985Z,9.680409
2022-12-04T15:07:55.580Z,9.680372
2022-12-04T15:08:55.493Z,9.680878
2022-12-04T15:09:55.493Z,9.681111
2022-12-04T15:10:55.472Z,9.681066
2022-12-04T15:11:55.522Z,9.680947
2022-12-04T15:12:55.461Z,9.680947
2022-12-04T15:13:55.598Z,9.680548
2022-12-04T15:14:55.649Z,9.680798
2022-12-04T15:15:55.548Z,9.680696
2022-12-04T15:16:55.446Z,9.681135
2022-12-04T15:17:55.425Z,9.681135
2022-12-04T15:18:55.429Z,9.681135
2022-12-04T15:19:55.472Z,9.681135
2022-12-04T15:20:55.408Z,9.681135
2022-12-04T15:21:55.427Z,9.681135
2022-12-04T15:22:55.407Z,9.681135
2022-12-04T15:23:55.411Z,9.681135
2022-12-04T15:24:55.820Z,9.681135
2022-12-04T15:25:55.387Z,9.681135
2022-12-04T15:26:55.401Z,9.681135
2022-12-04T15:27:55.363Z,9.681135
2022-12-04T15:28:55.365Z,9.681135
2022-12-04T15:29:55.387Z,9.681135
2022-12-04T15:30:55.430Z,9.681135
2022-12-04T15:31:55.354Z,9.681135
2022-12-04T15:32:55.327Z,9.681135
2022-12-04T15:33:55.325Z,9.681135
2022-12-04T15:34:55.671Z,9.681135
2022-12-04T15:35:55.328Z,9.681135
2022-12-04T15:36:55.311Z,9.681135
2022-12-04T15:37:55.370Z,9.681135
2022-12-04T15:38:55.296Z,9.681135
2022-12-04T15:39:55.528Z,9.681135
2022-12-04T15:40:55.269Z,9.681135
2022-12-04T15:41:55.301Z,9.681135
2022-12-04T15:42:55.255Z,9.681135
2022-12-04T15:43:55.280Z,9.681135
2022-12-04T15:44:55.564Z,9.681135
2022-12-04T15:45:55.325Z,9.681135
2022-12-04T15:46:55.410Z,9.681135
2022-12-04T15:47:55.242Z,9.681135
2022-12-04T15:48:55.229Z,9.681135
2022-12-04T15:49:55.570Z,9.681135
2022-12-04T15:50:55.226Z,9.681135
2022-12-04T15:51:55.255Z,9.680863
2022-12-04T15:52:55.196Z,9.680863
2022-12-04T15:53:55.214Z,9.681061
2022-12-04T15:54:55.454Z,9.681040
2022-12-04T15:55:55.184Z,9.681315
2022-12-04T15:56:55.197Z,9.681128
2022-12-04T15:57:55.191Z,9.681043
2022-12-04T15:58:55.154Z,9.681013
2022-12-04T15:59:55.166Z,9.680952
2022-12-04T16:00:55.160Z,9.680986
2022-12-04T16:01:55.202Z,9.681005
2022-12-04T16:02:55.125Z,9.681005
2022-12-04T16:03:55.224Z,9.681005
2022-12-04T16:04:55.125Z,9.681005
2022-12-04T16:05:55.140Z,9.681005
2022-12-04T16:06:55.122Z,9.681005
2022-12-04T16:07:55.169Z,9.681005
2022-12-04T16:08:55.098Z,9.681097
2022-12-04T16:10:01.102Z,9.681077
2022-12-04T16:10:56.092Z,9.681077
2022-12-04T16:11:55.141Z,9.680994
2022-12-04T16:12:55.095Z,9.680994
2022-12-04T16:13:55.081Z,9.680994
2022-12-04T16:14:55.223Z,9.680994
2022-12-04T16:15:55.156Z,9.680994
2022-12-04T16:16:55.058Z,9.680994
2022-12-04T16:17:55.096Z,9.680994
2022-12-04T16:18:55.026Z,9.680994
2022-12-04T16:19:55.026Z,9.680994
2022-12-04T16:20:55.034Z,9.680994
2022-12-04T16:21:55.005Z,9.680994
2022-12-04T16:22:55.044Z,9.680685
2022-12-04T16:23:55.036Z,9.680685
2022-12-04T16:24:55.387Z,9.680685
2022-12-04T16:25:55.013Z,9.680685
2022-12-04T16:26:55.004Z,9.680685
2022-12-04T16:27:54.986Z,9.680685
2022-12-04T16:28:54.998Z,9.680685
2022-12-04T16:29:54.956Z,9.680685
2022-12-04T16:30:55.059Z,9.680685
2022-12-04T16:31:59.676Z,9.680685
2022-12-04T16:32:55.995Z,9.681272
2022-12-04T16:33:54.981Z,9.681272
2022-12-04T16:34:55.401Z,9.681272
2022-12-04T16:35:54.962Z,9.681272
2022-12-04T16:36:54.932Z,9.681272
2022-12-04T16:37:55.009Z,9.681272
2022-12-04T16:38:54.928Z,9.681272
2022-12-04T16:39:54.939Z,9.681272
2022-12-04T16:40:54.911Z,9.680827
2022-12-04T16:41:54.887Z,9.681049
2022-12-04T16:42:54.883Z,9.681049
2022-12-04T16:43:54.865Z,9.680973
2022-12-04T16:44:55.063Z,9.680974
2022-12-04T16:45:54.887Z,9.680803
2022-12-04T16:46:54.941Z,9.680835
2022-12-04T16:47:54.895Z,9.680835
2022-12-04T16:48:54.857Z,9.680835
2022-12-04T16:49:54.881Z,9.680835
2022-12-04T16:50:54.822Z,9.680835
2022-12-04T16:51:54.867Z,9.680729
2022-12-04T16:52:54.815Z,9.680729
2022-12-04T16:53:54.816Z,9.681387
2022-12-04T16:54:55.283Z,9.681554
2022-12-04T16:55:54.798Z,9.681554
2022-12-04T16:56:54.781Z,9.680806
2022-12-04T16:57:54.822Z,9.680806
2022-12-04T16:58:54.789Z,9.680806
2022-12-04T16:59:55.361Z,9.680806
2022-12-04T17:00:54.767Z,9.681160
2022-12-04T17:01:54.882Z,9.681122
2022-12-04T17:02:54.791Z,9.681712
2022-12-04T17:03:54.836Z,9.682035
2022-12-04T17:04:57.777Z,9.682035
2022-12-04T17:05:54.766Z,9.681113
2022-12-04T17:06:54.715Z,9.680513
2022-12-04T17:07:54.900Z,9.679939
2022-12-04T17:08:54.722Z,9.680011
2022-12-04T17:09:54.733Z,9.680757
2022-12-04T17:10:54.700Z,9.681193
2022-12-04T17:11:54.723Z,9.681022
2022-12-04T17:12:54.763Z,9.681146
2022-12-04T17:13:54.717Z,9.681548
2022-12-04T17:14:55.129Z,9.681576
2022-12-04T17:15:54.741Z,9.681576
2022-12-04T17:16:54.756Z,9.681287
2022-12-04T17:17:54.666Z,9.680792
2022-12-04T17:18:54.657Z,9.680885
2022-12-04T17:19:54.688Z,9.680973
2022-12-04T17:20:54.656Z,9.680834
2022-12-04T17:21:54.634Z,9.680834
2022-12-04T17:22:54.648Z,9.681395
2022-12-04T17:23:54.654Z,9.681031
2022-12-04T17:24:56.261Z,9.680859
2022-12-04T17:25:54.622Z,9.680984
2022-12-04T17:26:54.617Z,9.681286
2022-12-04T17:27:54.623Z,9.681222
2022-12-04T17:28:54.604Z,9.681310
2022-12-04T17:29:54.592Z,9.681464
2022-12-04T17:30:54.583Z,9.681530
2022-12-04T17:31:54.605Z,9.681464
2022-12-04T17:32:54.578Z,9.681464
2022-12-04T17:33:54.577Z,9.681464
2022-12-04T17:34:55.111Z,9.681498
2022-12-04T17:35:54.544Z,9.681493
2022-12-04T17:36:54.547Z,9.681004
2022-12-04T17:37:54.541Z,9.681361
2022-12-04T17:38:54.541Z,9.680997
2022-12-04T17:39:54.534Z,9.680583
2022-12-04T17:40:54.511Z,9.680494
2022-12-04T17:41:54.525Z,9.680537
2022-12-04T17:42:54.516Z,9.680247
2022-12-04T17:43:54.482Z,9.680143
2022-12-04T17:44:54.781Z,9.680143
2022-12-04T17:45:54.479Z,9.680143
2022-12-04T17:46:54.560Z,9.680143
2022-12-04T17:47:54.490Z,9.680143
2022-12-04T17:48:54.475Z,9.680143
2022-12-04T17:49:54.476Z,9.680143
2022-12-04T17:50:54.458Z,9.680971
2022-12-04T17:51:54.471Z,9.681018
2022-12-04T17:52:54.459Z,9.681018
2022-12-04T17:53:54.448Z,9.681018
2022-12-04T17:54:54.664Z,9.681018
2022-12-04T17:55:54.427Z,9.681018
2022-12-04T17:56:57.823Z,9.681183
2022-12-04T17:57:54.412Z,9.681120
2022-12-04T17:58:54.429Z,9.681047
2022-12-04T17:59:54.523Z,9.680835
2022-12-04T18:00:54.467Z,9.680985
2022-12-04T18:01:54.420Z,9.680744
2022-12-04T18:02:54.429Z,9.681020
2022-12-04T18:03:54.381Z,9.681005
2022-12-04T18:04:54.692Z,9.681068
2022-12-04T18:05:54.361Z,9.681077
2022-12-04T18:06:54.392Z,9.681076
2022-12-04T18:07:54.414Z,9.681094
2022-12-04T18:08:54.329Z,9.681308
2022-12-04T18:09:54.648Z,9.681170
2022-12-04T18:10:54.334Z,9.681109
2022-12-04T18:11:54.338Z,9.680925
2022-12-04T18:12:54.334Z,9.680995
2022-12-04T18:13:54.317Z,9.681128
2022-12-04T18:14:54.299Z,9.681023
2022-12-04T18:15:54.383Z,9.681078
2022-12-04T18:16:54.350Z,9.681034
2022-12-04T18:17:54.275Z,9.681014
2022-12-04T18:18:54.285Z,9.681059
2022-12-04T18:19:54.608Z,9.681416
2022-12-04T18:20:54.260Z,9.681168
2022-12-04T18:21:54.254Z,9.681179
2022-12-04T18:22:54.252Z,9.681195
2022-12-04T18:23:54.229Z,9.681214
2022-12-04T18:24:54.215Z,9.681387
2022-12-04T18:25:54.249Z,9.681108
2022-12-04T18:26:54.209Z,9.680885
2022-12-04T18:27:54.244Z,9.680989
2022-12-04T18:28:54.197Z,9.681054
2022-12-04T18:29:54.327Z,9.681026
2022-12-04T18:30:54.195Z,9.680915
2022-12-04T18:31:54.392Z,9.680822
2022-12-04T18:32:54.198Z,9.681037
2022-12-04T18:33:54.198Z,9.681053
2022-12-04T18:34:54.166Z,9.681073
2022-12-04T18:35:54.162Z,9.680683
2022-12-04T18:36:54.162Z,9.680727
2022-12-04T18:37:54.220Z,9.680923
2022-12-04T18:38:54.157Z,9.680987
2022-12-04T18:39:54.447Z,9.680992
2022-12-04T18:40:54.124Z,9.681161
2022-12-04T18:41:54.139Z,9.681507
2022-12-04T18:42:54.121Z,9.680632
2022-12-04T18:43:54.097Z,9.680789
2022-12-04T18:44:54.104Z,9.681026
2022-12-04T18:45:54.173Z,9.681026
2022-12-04T18:46:54.079Z,9.681047
2022-12-04T18:47:54.156Z,9.681170
2022-12-04T18:48:54.065Z,9.681027
2022-12-04T18:49:54.348Z,9.681121
2022-12-04T18:50:54.096Z,9.681121
2022-12-04T18:51:54.065Z,9.680740
2022-12-04T18:52:59.937Z,9.680652
2022-12-04T18:53:55.054Z,9.680198
2022-12-04T18:54:54.049Z,9.679962
2022-12-04T18:55:54.055Z,9.680090
2022-12-04T18:56:54.058Z,9.680068
2022-12-04T18:57:54.041Z,9.679934
2022-12-04T18:58:54.037Z,9.678789
2022-12-04T18:59:54.357Z,9.677346
2022-12-04T19:00:54.066Z,9.675832
2022-12-04T19:01:54.073Z,9.674795
2022-12-04T19:02:54.063Z,9.672716
2022-12-04T19:03:53.970Z,9.673659
2022-12-04T19:04:53.993Z,9.674453
2022-12-04T19:05:53.994Z,9.674643
2022-12-04T19:06:53.972Z,9.675070
2022-12-04T19:07:54.007Z,9.674903
2022-12-04T19:08:53.942Z,9.675066
2022-12-04T19:10:53.924Z,9.673778
2022-12-04T19:12:00.968Z,9.675295
2022-12-04T19:12:53.930Z,9.676229
2022-12-04T19:13:53.906Z,9.676229
2022-12-04T19:14:53.955Z,9.676229
2022-12-04T19:15:53.926Z,9.680810
2022-12-04T19:16:53.943Z,9.681354
2022-12-04T19:17:53.906Z,9.681425
2022-12-04T19:18:53.864Z,9.681618
2022-12-04T19:19:54.067Z,9.681222
2022-12-04T19:20:53.858Z,9.681207
2022-12-04T19:21:53.893Z,9.681033
2022-12-04T19:22:53.877Z,9.681040
2022-12-04T19:23:53.843Z,9.680856
2022-12-04T19:24:53.854Z,9.680729
2022-12-04T19:25:53.835Z,9.681054
2022-12-04T19:26:53.823Z,9.680941
2022-12-04T19:27:53.875Z,9.680901
2022-12-04T19:28:53.803Z,9.680934
2022-12-04T19:29:53.885Z,9.681026
2022-12-04T19:30:53.799Z,9.681029
2022-12-04T19:31:59.073Z,9.681124
2022-12-04T19:32:53.837Z,9.681013
2022-12-04T19:33:53.819Z,9.680906
2022-12-04T19:34:53.838Z,9.680879
2022-12-04T19:35:53.763Z,9.680726
2022-12-04T19:36:53.763Z,9.681160
2022-12-04T19:37:53.795Z,9.680935
2022-12-04T19:38:53.764Z,9.680987
2022-12-04T19:39:53.870Z,9.681017
2022-12-04T19:40:53.766Z,9.681160
2022-12-04T19:41:53.740Z,9.681091
2022-12-04T19:42:58.136Z,9.681119
2022-12-04T19:43:54.729Z,9.680921
2022-12-04T19:44:53.708Z,9.681037
2022-12-04T19:45:53.819Z,9.680719
2022-12-04T19:46:53.700Z,9.680947
2022-12-04T19:47:53.701Z,9.680629
2022-12-04T19:48:53.689Z,9.680591
2022-12-04T19:49:53.696Z,9.681024
2022-12-04T19:50:53.671Z,9.681129
2022-12-04T19:51:53.708Z,9.681050
2022-12-04T19:52:53.659Z,9.681005
2022-12-04T19:53:53.654Z,9.680948
2022-12-04T19:54:53.643Z,9.680730
2022-12-04T19:55:53.692Z,9.680874
2022-12-04T19:56:53.645Z,9.681001
2022-12-04T19:57:53.633Z,9.681142
2022-12-04T19:58:53.617Z,9.681335
2022-12-04T19:59:53.592Z,9.681191
2022-12-04T20:00:53.646Z,9.681395
2022-12-04T20:01:53.771Z,9.681408
2022-12-04T20:02:53.652Z,9.681375
2022-12-04T20:03:53.610Z,9.681289
2022-12-04T20:04:53.569Z,9.681614
2022-12-04T20:05:53.571Z,9.681188
2022-12-04T20:06:53.552Z,9.681097
2022-12-04T20:07:53.569Z,9.680941
2022-12-04T20:08:53.553Z,9.680917
2022-12-04T20:09:53.576Z,9.681041
2022-12-04T20:10:53.532Z,9.680813
2022-12-04T20:11:53.545Z,9.680933
2022-12-04T20:12:53.579Z,9.681183
2022-12-04T20:13:53.553Z,9.681115
2022-12-04T20:14:53.495Z,9.681124
2022-12-04T20:15:53.518Z,9.681138
2022-12-04T20:16:53.579Z,9.681258
2022-12-04T20:17:53.498Z,9.681536
2022-12-04T20:18:53.585Z,9.681582
2022-12-04T20:19:53.480Z,9.681502
2022-12-04T20:20:53.472Z,9.681436
2022-12-04T20:21:58.912Z,9.681120
2022-12-04T20:22:54.483Z,9.680878
2022-12-04T20:23:53.481Z,9.681046
2022-12-04T20:24:53.479Z,9.681044
2022-12-04T20:25:53.462Z,9.681293
2022-12-04T20:26:53.450Z,9.681450
2022-12-04T20:27:53.458Z,9.681143
2022-12-04T20:28:53.453Z,9.681209
2022-12-04T20:29:53.563Z,9.681480
2022-12-04T20:30:53.528Z,9.681426
2022-12-04T20:31:53.465Z,9.681337
2022-12-04T20:32:53.407Z,9.681180
2022-12-04T20:33:53.412Z,9.681197
2022-12-04T20:34:53.375Z,9.681079
2022-12-04T20:35:53.364Z,9.681068
2022-12-04T20:36:53.363Z,9.680885
2022-12-04T20:37:53.394Z,9.681178
2022-12-04T20:38:53.354Z,9.681177
2022-12-04T20:39:53.362Z,9.681224
2022-12-04T20:40:53.337Z,9.681283
2022-12-04T20:41:53.369Z,9.681527
2022-12-04T20:42:53.331Z,9.681044
2022-12-04T20:43:53.334Z,9.680953
2022-12-04T20:44:53.341Z,9.681004
2022-12-04T20:45:53.350Z,9.681121
2022-12-04T20:46:53.310Z,9.681023
2022-12-04T20:47:53.364Z,9.681062
2022-12-04T20:48:53.291Z,9.681449
2022-12-04T20:49:53.318Z,9.682291
2022-12-04T20:50:53.319Z,9.681212
2022-12-04T20:51:53.296Z,9.681201
2022-12-04T20:52:53.267Z,9.681134
2022-12-04T20:53:53.297Z,9.681254
2022-12-04T20:54:53.259Z,9.680975
2022-12-04T20:55:53.248Z,9.680956
2022-12-04T20:56:53.485Z,9.680861
2022-12-04T20:57:53.235Z,9.681010
2022-12-04T20:58:53.222Z,9.680786
2022-12-04T20:59:53.222Z,9.680901
2022-12-04T21:00:53.260Z,9.681030
2022-12-04T21:01:53.254Z,9.680968
2022-12-04T21:02:53.280Z,9.680322
2022-12-04T21:03:53.199Z,9.679974
2022-12-04T21:04:53.217Z,9.680860
2022-12-04T21:05:53.189Z,9.680729
2022-12-04T21:06:53.225Z,9.681054
2022-12-04T21:07:53.285Z,9.681113
2022-12-04T21:08:53.192Z,9.680244
2022-12-04T21:09:53.182Z,9.680088
2022-12-04T21:10:53.148Z,9.680275
2022-12-04T21:11:53.135Z,9.680683
2022-12-04T21:12:53.139Z,9.680725
2022-12-04T21:13:53.152Z,9.680736
2022-12-04T21:14:53.122Z,9.681189
2022-12-04T21:15:53.202Z,9.681274
2022-12-04T21:16:53.131Z,9.681286
2022-12-04T21:17:53.119Z,9.680674
2022-12-04T21:18:53.107Z,9.680385
2022-12-04T21:19:53.145Z,9.680269
2022-12-04T21:20:53.071Z,9.679708
2022-12-04T21:21:53.120Z,9.679772
2022-12-04T21:22:53.091Z,9.679991
2022-12-04T21:23:53.056Z,9.679851
2022-12-04T21:24:53.049Z,9.679785
2022-12-04T21:25:53.044Z,9.680173
2022-12-04T21:26:53.026Z,9.681188
2022-12-04T21:27:53.068Z,9.681143
2022-12-04T21:28:53.011Z,9.680810
2022-12-04T21:29:53.041Z,9.680739
2022-12-04T21:30:53.079Z,9.680715
2022-12-04T21:31:53.047Z,9.680684
2022-12-04T21:32:53.011Z,9.680799
2022-12-04T21:33:53.013Z,9.680687
2022-12-04T21:34:52.969Z,9.680429
2022-12-04T21:35:52.987Z,9.681102
2022-12-04T21:36:53.042Z,9.681055
2022-12-04T21:37:52.962Z,9.681551
2022-12-04T21:38:52.996Z,9.681042
2022-12-04T21:39:52.952Z,9.681289
2022-12-04T21:40:52.942Z,9.681782
2022-12-04T21:41:52.947Z,9.681593
2022-12-04T21:42:52.945Z,9.681452
2022-12-04T21:43:52.929Z,9.681190
2022-12-04T21:44:52.933Z,9.681036
2022-12-04T21:45:52.946Z,9.680865
2022-12-04T21:46:52.992Z,9.681170
2022-12-04T21:47:52.916Z,9.681165
2022-12-04T21:48:52.892Z,9.680988
2022-12-04T21:49:52.915Z,9.681168
2022-12-04T21:50:52.879Z,9.681116
2022-12-04T21:51:57.721Z,9.681225
2022-12-04T21:52:53.865Z,9.681414
2022-12-04T21:53:52.849Z,9.681219
2022-12-04T21:54:52.849Z,9.681478
2022-12-04T21:55:52.865Z,9.681298
2022-12-04T21:56:52.847Z,9.681573
2022-12-04T21:57:52.825Z,9.681710
2022-12-04T21:58:52.818Z,9.681191
2022-12-04T21:59:52.853Z,9.681297
2022-12-04T22:00:52.838Z,9.680987
2022-12-04T22:01:52.945Z,9.681189
2022-12-04T22:02:52.885Z,9.681196
2022-12-04T22:03:52.790Z,9.681879
2022-12-04T22:04:52.778Z,9.681449
2022-12-04T22:05:52.781Z,9.681284
2022-12-04T22:06:52.797Z,9.681288
2022-12-04T22:07:52.805Z,9.680823
2022-12-04T22:08:52.752Z,9.681387
2022-12-04T22:09:52.738Z,9.681533
2022-12-04T22:10:52.737Z,9.680886
2022-12-04T22:11:52.741Z,9.681322
2022-12-04T22:12:52.772Z,9.681410
2022-12-04T22:13:52.732Z,9.681856
2022-12-04T22:14:52.746Z,9.681503
2022-12-04T22:15:52.776Z,9.681481
2022-12-04T22:16:52.757Z,9.681338
2022-12-04T22:17:52.713Z,9.681263
2022-12-04T22:18:52.684Z,9.681045
2022-12-04T22:19:52.677Z,9.681103
2022-12-04T22:20:52.698Z,9.681211
2022-12-04T22:21:52.707Z,9.681166
2022-12-04T22:22:52.688Z,9.681357
2022-12-04T22:23:52.689Z,9.681398
2022-12-04T22:24:52.683Z,9.681594
2022-12-04T22:25:52.649Z,9.681527
2022-12-04T22:26:52.704Z,9.681441
2022-12-04T22:27:52.625Z,9.681375
2022-12-04T22:28:52.631Z,9.681375
2022-12-04T22:29:52.636Z,9.681151
2022-12-04T22:30:52.652Z,9.681255
2022-12-04T22:31:52.742Z,9.681257
2022-12-04T22:32:52.599Z,9.681309
2022-12-04T22:33:52.603Z,9.681368
2022-12-04T22:34:52.584Z,9.681249
2022-12-04T22:35:52.587Z,9.681396
2022-12-04T22:36:52.594Z,9.681221
2022-12-04T22:37:52.568Z,9.681264
2022-12-04T22:39:11.499Z,9.681168
2022-12-04T22:39:53.585Z,9.681170
2022-12-04T22:40:52.537Z,9.681182
2022-12-04T22:41:52.595Z,9.681413
2022-12-04T22:42:52.547Z,9.681476
2022-12-04T22:43:52.535Z,9.681452
2022-12-04T22:44:52.525Z,9.681218
2022-12-04T22:45:52.505Z,9.681162
2022-12-04T22:46:52.608Z,9.681149
2022-12-04T22:47:52.498Z,9.680959
2022-12-04T22:48:52.485Z,9.680949
2022-12-04T22:49:52.493Z,9.680829
2022-12-04T22:50:52.493Z,9.680814
2022-12-04T22:51:52.494Z,9.681147
2022-12-04T22:52:52.499Z,9.680923
2022-12-04T22:53:52.455Z,9.680814
2022-12-04T22:54:52.459Z,9.680717
2022-12-04T22:55:52.449Z,9.680935
2022-12-04T22:56:52.440Z,9.681187
2022-12-04T22:57:52.434Z,9.681114
2022-12-04T22:58:52.460Z,9.680898
2022-12-04T22:59:52.421Z,9.681117
2022-12-04T23:00:52.415Z,9.680911
2022-12-04T23:01:52.417Z,9.680834
2022-12-04T23:02:52.462Z,9.680933
2022-12-04T23:03:52.407Z,9.680906
2022-12-04T23:04:52.453Z,9.681132
2022-12-04T23:05:52.400Z,9.681028
2022-12-04T23:06:52.398Z,9.680986
2022-12-04T23:07:52.488Z,9.681053
2022-12-04T23:08:52.369Z,9.681045
2022-12-04T23:09:52.359Z,9.681329
2022-12-04T23:10:52.352Z,9.681202
2022-12-04T23:11:52.335Z,9.680827
2022-12-04T23:12:52.377Z,9.680837
2022-12-04T23:13:52.328Z,9.680622
2022-12-04T23:14:52.331Z,9.680906
2022-12-04T23:15:52.361Z,9.681021
2022-12-04T23:16:52.365Z,9.680874
2022-12-04T23:17:52.296Z,9.680953
2022-12-04T23:18:52.304Z,9.680870
2022-12-04T23:19:52.315Z,9.680844
2022-12-04T23:20:52.280Z,9.680987
2022-12-04T23:21:56.842Z,9.680873
2022-12-04T23:22:53.262Z,9.680942
2022-12-04T23:23:52.279Z,9.680599
2022-12-04T23:24:52.321Z,9.680812
2022-12-04T23:25:52.265Z,9.680936
2022-12-04T23:26:52.237Z,9.680732
2022-12-04T23:27:52.230Z,9.680943
2022-12-04T23:28:52.223Z,9.681143
2022-12-04T23:29:53.681Z,9.681035
2022-12-04T23:30:52.243Z,9.680961
2022-12-04T23:31:52.245Z,9.680834
2022-12-04T23:32:52.192Z,9.680837
2022-12-04T23:33:52.220Z,9.680846
2022-12-04T23:34:52.190Z,9.680672
2022-12-04T23:35:52.195Z,9.680753
2022-12-04T23:36:52.180Z,9.680884
2022-12-04T23:37:52.214Z,9.681187
2022-12-04T23:38:52.177Z,9.680886
2022-12-04T23:39:52.161Z,9.681156
2022-12-04T23:40:52.178Z,9.681071
2022-12-04T23:41:52.161Z,9.680758
2022-12-04T23:42:52.141Z,9.680540
2022-12-04T23:43:52.159Z,9.680559
2022-12-04T23:44:52.144Z,9.680722
2022-12-04T23:45:52.137Z,9.680763
2022-12-04T23:46:52.160Z,9.680754
2022-12-04T23:47:52.122Z,9.680943
2022-12-04T23:48:52.103Z,9.681087
2022-12-04T23:49:52.101Z,9.680838
2022-12-04T23:50:52.085Z,9.680835
2022-12-04T23:51:52.099Z,9.680755
2022-12-04T23:52:52.118Z,9.680610
2022-12-04T23:53:52.082Z,9.680711
2022-12-04T23:54:52.066Z,9.681160
2022-12-04T23:55:52.053Z,9.681184
2022-12-04T23:56:52.047Z,9.681066
2022-12-04T23:57:52.070Z,9.680763
2022-12-04T23:58:52.034Z,9.680924
2022-12-04T23:59:52.041Z,9.680882
